createdAt,value
2023-05-30T00:00:13.673Z,14.37
2023-05-30T00:01:13.754Z,14.38
2023-05-30T00:02:13.934Z,14.36
2023-05-30T00:03:14.116Z,14.37
2023-05-30T00:04:14.189Z,14.38
2023-05-30T00:05:14.311Z,14.37
2023-05-30T00:06:14.409Z,14.37
2023-05-30T00:07:14.682Z,14.36
2023-05-30T00:08:15.688Z,14.37
2023-05-30T00:09:14.765Z,14.38
2023-05-30T00:10:14.853Z,14.38
2023-05-30T00:11:15.034Z,14.38
2023-05-30T00:12:15.126Z,14.40
2023-05-30T00:13:15.212Z,14.40
2023-05-30T00:14:15.290Z,14.33
2023-05-30T00:15:15.410Z,14.26
2023-05-30T00:16:15.631Z,14.23
2023-05-30T00:17:15.651Z,14.20
2023-05-30T00:18:15.730Z,14.18
2023-05-30T00:19:15.987Z,14.19
2023-05-30T00:20:16.065Z,14.19
2023-05-30T00:21:16.108Z,14.20
2023-05-30T00:22:16.188Z,14.20
2023-05-30T00:23:16.299Z,14.19
2023-05-30T00:24:23.397Z,14.18
2023-05-30T00:25:16.565Z,14.16
2023-05-30T00:26:16.658Z,14.16
2023-05-30T00:27:19.403Z,14.18
2023-05-30T00:28:16.824Z,14.22
2023-05-30T00:29:16.886Z,14.26
2023-05-30T00:30:17.081Z,14.25
2023-05-30T00:31:17.246Z,14.23
2023-05-30T00:32:17.301Z,14.20
2023-05-30T00:33:17.386Z,14.16
2023-05-30T00:34:17.468Z,14.16
2023-05-30T00:35:17.548Z,14.18
2023-05-30T00:36:17.629Z,14.16
2023-05-30T00:37:17.721Z,14.13
2023-05-30T00:38:17.827Z,14.12
2023-05-30T00:39:17.929Z,14.08
2023-05-30T00:40:18.045Z,14.05
2023-05-30T00:41:18.123Z,14.04
2023-05-30T00:42:18.220Z,14.00
2023-05-30T00:43:18.333Z,13.95
2023-05-30T00:44:18.538Z,13.93
2023-05-30T00:45:18.626Z,13.87
2023-05-30T00:46:18.725Z,13.85
2023-05-30T00:47:18.793Z,13.79
2023-05-30T00:48:18.877Z,13.79
2023-05-30T00:49:18.954Z,13.79
2023-05-30T00:50:19.055Z,13.76
2023-05-30T00:51:19.162Z,13.71
2023-05-30T00:52:19.279Z,13.64
2023-05-30T00:53:19.382Z,13.62
2023-05-30T00:54:19.476Z,13.65
2023-05-30T00:55:19.561Z,13.61
2023-05-30T00:56:19.669Z,13.58
2023-05-30T00:57:19.776Z,13.58
2023-05-30T00:58:19.865Z,13.55
2023-05-30T00:59:19.971Z,13.50
2023-05-30T01:00:20.137Z,13.49
2023-05-30T01:01:20.292Z,13.45
2023-05-30T01:02:20.361Z,13.43
2023-05-30T01:03:20.503Z,13.42
2023-05-30T01:04:20.573Z,13.39
2023-05-30T01:05:20.683Z,13.37
2023-05-30T01:06:20.748Z,13.30
2023-05-30T01:07:20.851Z,13.27
2023-05-30T01:08:20.942Z,13.26
2023-05-30T01:09:21.024Z,13.24
2023-05-30T01:10:21.154Z,13.23
2023-05-30T01:11:21.276Z,13.23
2023-05-30T01:12:21.412Z,13.21
2023-05-30T01:13:21.526Z,13.21
2023-05-30T01:14:21.618Z,13.23
2023-05-30T01:15:21.708Z,13.23
2023-05-30T01:16:21.839Z,13.27
2023-05-30T01:17:21.954Z,13.27
2023-05-30T01:18:22.011Z,13.31
2023-05-30T01:19:22.091Z,13.30
2023-05-30T01:20:22.368Z,13.27
2023-05-30T01:21:22.453Z,13.21
2023-05-30T01:22:22.553Z,13.17
2023-05-30T01:23:22.708Z,13.13
2023-05-30T01:24:22.803Z,13.12
2023-05-30T01:25:22.900Z,13.12
2023-05-30T01:26:22.985Z,13.09
2023-05-30T01:27:23.093Z,13.06
2023-05-30T01:28:23.195Z,13.11
2023-05-30T01:29:23.289Z,13.12
2023-05-30T01:30:23.387Z,13.12
2023-05-30T01:31:23.478Z,13.12
2023-05-30T01:32:23.774Z,13.12
2023-05-30T01:33:23.835Z,13.17
2023-05-30T01:34:23.941Z,13.20
2023-05-30T01:35:24.044Z,13.20
2023-05-30T01:36:24.140Z,13.17
2023-05-30T01:37:24.271Z,13.13
2023-05-30T01:38:24.625Z,13.12
2023-05-30T01:39:24.482Z,13.12
2023-05-30T01:40:24.602Z,13.16
2023-05-30T01:41:24.701Z,13.20
2023-05-30T01:42:24.835Z,13.21
2023-05-30T01:43:24.927Z,13.23
2023-05-30T01:44:25.043Z,13.21
2023-05-30T01:45:25.144Z,13.20
2023-05-30T01:46:25.346Z,13.20
2023-05-30T01:47:25.477Z,13.19
2023-05-30T01:48:25.557Z,13.17
2023-05-30T01:49:25.657Z,13.09
2023-05-30T01:50:25.726Z,13.06
2023-05-30T01:51:25.844Z,13.05
2023-05-30T01:52:25.953Z,13.02
2023-05-30T01:53:26.063Z,12.99
2023-05-30T01:54:26.164Z,12.99
2023-05-30T01:55:26.255Z,12.98
2023-05-30T01:56:26.357Z,12.99
2023-05-30T01:57:26.480Z,12.98
2023-05-30T01:58:26.554Z,12.95
2023-05-30T01:59:26.644Z,12.98
2023-05-30T02:00:26.740Z,12.94
2023-05-30T02:01:26.885Z,12.88
2023-05-30T02:02:26.994Z,12.86
2023-05-30T02:03:27.065Z,12.84
2023-05-30T02:04:27.145Z,12.81
2023-05-30T02:05:27.422Z,12.73
2023-05-30T02:06:27.469Z,12.73
2023-05-30T02:07:27.579Z,12.72
2023-05-30T02:08:27.661Z,12.70
2023-05-30T02:09:27.832Z,12.66
2023-05-30T02:10:28.016Z,12.62
2023-05-30T02:11:28.166Z,12.63
2023-05-30T02:12:28.354Z,12.63
2023-05-30T02:13:28.525Z,12.65
2023-05-30T02:14:28.672Z,12.69
2023-05-30T02:15:28.824Z,12.70
2023-05-30T02:16:29.023Z,12.69
2023-05-30T02:17:29.210Z,12.63
2023-05-30T02:18:29.329Z,12.57
2023-05-30T02:19:29.468Z,12.55
2023-05-30T02:20:29.637Z,12.54
2023-05-30T02:21:29.718Z,12.51
2023-05-30T02:22:29.819Z,12.51
2023-05-30T02:23:29.916Z,12.51
2023-05-30T02:24:30.028Z,12.48
2023-05-30T02:25:30.114Z,12.45
2023-05-30T02:26:30.197Z,12.40
2023-05-30T02:27:30.397Z,12.36
2023-05-30T02:28:30.488Z,12.36
2023-05-30T02:29:30.599Z,12.35
2023-05-30T02:30:30.738Z,12.35
2023-05-30T02:31:30.823Z,12.33
2023-05-30T02:32:31.108Z,12.28
2023-05-30T02:33:31.030Z,12.28
2023-05-30T02:34:31.132Z,12.26
2023-05-30T02:35:31.274Z,12.21
2023-05-30T02:36:31.380Z,12.20
2023-05-30T02:37:31.506Z,12.25
2023-05-30T02:38:31.609Z,12.21
2023-05-30T02:39:31.830Z,12.23
2023-05-30T02:40:31.932Z,12.21
2023-05-30T02:41:32.161Z,12.18
2023-05-30T02:42:32.261Z,12.15
2023-05-30T02:43:32.392Z,12.14
2023-05-30T02:44:32.495Z,12.15
2023-05-30T02:45:32.585Z,12.18
2023-05-30T02:46:32.711Z,12.17
2023-05-30T02:47:32.863Z,12.17
2023-05-30T02:48:32.974Z,12.15
2023-05-30T02:49:33.045Z,12.14
2023-05-30T02:50:33.149Z,12.15
2023-05-30T02:51:33.241Z,12.11
2023-05-30T02:52:33.367Z,12.12
2023-05-30T02:53:33.449Z,12.15
2023-05-30T02:54:33.546Z,12.23
2023-05-30T02:55:33.666Z,12.26
2023-05-30T02:56:33.767Z,12.29
2023-05-30T02:57:33.977Z,12.29
2023-05-30T02:58:34.076Z,12.33
2023-05-30T02:59:34.179Z,12.33
2023-05-30T03:00:34.276Z,12.33
2023-05-30T03:01:34.504Z,12.32
2023-05-30T03:02:34.597Z,12.30
2023-05-30T03:03:34.780Z,12.29
2023-05-30T03:04:34.847Z,12.28
2023-05-30T03:05:35.046Z,12.28
2023-05-30T03:06:35.144Z,12.29
2023-05-30T03:07:35.266Z,12.29
2023-05-30T03:08:35.384Z,12.29
2023-05-30T03:09:35.468Z,12.25
2023-05-30T03:10:35.582Z,12.25
2023-05-30T03:11:35.667Z,12.25
2023-05-30T03:12:35.781Z,12.20
2023-05-30T03:13:35.890Z,12.21
2023-05-30T03:14:35.990Z,12.20
2023-05-30T03:15:37.223Z,12.17
2023-05-30T03:16:36.388Z,12.14
2023-05-30T03:17:36.440Z,12.15
2023-05-30T03:18:36.558Z,12.14
2023-05-30T03:19:36.631Z,12.11
2023-05-30T03:20:36.792Z,12.10
2023-05-30T03:21:37.799Z,12.12
2023-05-30T03:22:37.010Z,12.14
2023-05-30T03:23:37.123Z,12.17
2023-05-30T03:24:37.228Z,12.21
2023-05-30T03:25:37.321Z,12.25
2023-05-30T03:26:37.405Z,12.25
2023-05-30T03:27:38.078Z,12.23
2023-05-30T03:28:37.632Z,12.23
2023-05-30T03:29:37.734Z,12.23
2023-05-30T03:30:37.851Z,12.23
2023-05-30T03:31:38.005Z,12.23
2023-05-30T03:32:38.115Z,12.21
2023-05-30T03:33:38.222Z,12.25
2023-05-30T03:34:38.286Z,12.25
2023-05-30T03:35:38.406Z,12.26
2023-05-30T03:36:38.495Z,12.26
2023-05-30T03:37:38.621Z,12.25
2023-05-30T03:38:38.721Z,12.28
2023-05-30T03:39:38.929Z,12.29
2023-05-30T03:40:39.025Z,12.30
2023-05-30T03:41:39.138Z,12.32
2023-05-30T03:42:42.279Z,12.32
2023-05-30T03:43:39.590Z,12.35
2023-05-30T03:44:39.595Z,12.30
2023-05-30T03:45:39.719Z,12.30
2023-05-30T03:46:39.793Z,12.32
2023-05-30T03:47:39.944Z,12.32
2023-05-30T03:48:40.033Z,12.33
2023-05-30T03:49:40.140Z,12.35
2023-05-30T03:50:40.232Z,12.36
2023-05-30T03:51:40.354Z,12.39
2023-05-30T03:52:40.467Z,12.43
2023-05-30T03:53:40.575Z,12.47
2023-05-30T03:54:40.681Z,12.40
2023-05-30T03:55:40.790Z,12.35
2023-05-30T03:56:40.873Z,12.33
2023-05-30T03:57:40.997Z,12.28
2023-05-30T03:58:41.081Z,12.21
2023-05-30T03:59:41.337Z,12.18
2023-05-30T04:00:41.472Z,12.05
2023-05-30T04:01:41.597Z,12.02
2023-05-30T04:02:41.789Z,11.97
2023-05-30T04:03:41.843Z,11.91
2023-05-30T04:04:41.923Z,11.93
2023-05-30T04:05:42.144Z,11.88
2023-05-30T04:06:42.243Z,11.88
2023-05-30T04:07:42.382Z,11.89
2023-05-30T04:08:42.486Z,11.89
2023-05-30T04:09:42.589Z,11.88
2023-05-30T04:10:42.700Z,11.91
2023-05-30T04:11:42.795Z,11.91
2023-05-30T04:12:42.906Z,11.91
2023-05-30T04:13:43.022Z,11.93
2023-05-30T04:14:43.143Z,11.95
2023-05-30T04:15:43.278Z,11.97
2023-05-30T04:16:43.335Z,11.96
2023-05-30T04:17:43.470Z,11.99
2023-05-30T04:18:43.559Z,12.00
2023-05-30T04:19:43.693Z,12.08
2023-05-30T04:20:43.854Z,12.08
2023-05-30T04:21:44.006Z,12.10
2023-05-30T04:22:44.112Z,12.14
2023-05-30T04:23:44.233Z,12.14
2023-05-30T04:24:44.324Z,12.18
2023-05-30T04:25:44.434Z,12.21
2023-05-30T04:26:44.540Z,12.25
2023-05-30T04:27:49.830Z,12.26
2023-05-30T04:28:45.895Z,12.29
2023-05-30T04:29:45.102Z,12.32
2023-05-30T04:30:45.233Z,12.33
2023-05-30T04:31:45.376Z,12.33
2023-05-30T04:32:45.488Z,12.29
2023-05-30T04:33:45.549Z,12.29
2023-05-30T04:34:45.658Z,12.29
2023-05-30T04:35:45.751Z,12.29
2023-05-30T04:36:45.862Z,12.29
2023-05-30T04:37:46.228Z,12.26
2023-05-30T04:38:46.140Z,12.26
2023-05-30T04:39:46.286Z,12.26
2023-05-30T04:40:46.380Z,12.26
2023-05-30T04:41:46.482Z,12.32
2023-05-30T04:42:46.587Z,12.37
2023-05-30T04:43:46.729Z,12.43
2023-05-30T04:44:46.818Z,12.48
2023-05-30T04:45:47.501Z,12.50
2023-05-30T04:46:47.052Z,12.51
2023-05-30T04:47:47.303Z,12.47
2023-05-30T04:48:47.397Z,12.48
2023-05-30T04:49:47.513Z,12.50
2023-05-30T04:50:47.646Z,12.55
2023-05-30T04:51:47.737Z,12.62
2023-05-30T04:52:47.829Z,12.65
2023-05-30T04:53:47.941Z,12.69
2023-05-30T04:54:48.031Z,12.75
2023-05-30T04:55:48.168Z,12.80
2023-05-30T04:56:48.262Z,12.84
2023-05-30T04:57:48.389Z,12.86
2023-05-30T04:58:48.486Z,12.88
2023-05-30T04:59:49.524Z,12.99
2023-05-30T05:00:48.710Z,13.03
2023-05-30T05:01:49.018Z,13.09
2023-05-30T05:02:49.030Z,13.17
2023-05-30T05:03:49.222Z,13.24
2023-05-30T05:04:49.192Z,13.28
2023-05-30T05:05:49.321Z,13.33
2023-05-30T05:06:49.416Z,13.39
2023-05-30T05:07:49.531Z,13.45
2023-05-30T05:08:49.659Z,13.49
2023-05-30T05:09:49.758Z,13.55
2023-05-30T05:10:49.868Z,13.60
2023-05-30T05:11:49.960Z,13.65
2023-05-30T05:12:50.065Z,13.75
2023-05-30T05:13:50.195Z,13.80
2023-05-30T05:14:50.348Z,13.87
2023-05-30T05:15:50.516Z,13.94
2023-05-30T05:16:50.612Z,13.98
2023-05-30T05:17:50.733Z,14.01
2023-05-30T05:18:50.801Z,14.05
2023-05-30T05:19:50.907Z,14.04
2023-05-30T05:20:51.051Z,14.04
2023-05-30T05:21:51.109Z,14.07
2023-05-30T05:22:51.216Z,14.04
2023-05-30T05:23:51.358Z,14.03
2023-05-30T05:24:51.408Z,14.07
2023-05-30T05:26:51.600Z,14.15
2023-05-30T05:27:51.703Z,14.22
2023-05-30T05:28:51.796Z,14.28
2023-05-30T05:29:51.887Z,14.37
2023-05-30T05:30:51.974Z,14.43
2023-05-30T05:31:52.124Z,14.49
2023-05-30T05:32:52.249Z,14.56
2023-05-30T05:33:52.345Z,14.62
2023-05-30T05:34:52.420Z,14.62
2023-05-30T05:35:52.560Z,14.58
2023-05-30T05:36:52.605Z,14.56
2023-05-30T05:37:52.704Z,14.63
2023-05-30T05:38:52.788Z,14.70
2023-05-30T05:39:52.885Z,14.73
2023-05-30T05:40:52.981Z,14.82
2023-05-30T05:41:53.075Z,14.93
2023-05-30T05:42:53.189Z,15.04
2023-05-30T05:43:53.291Z,15.10
2023-05-30T05:44:53.409Z,15.15
2023-05-30T05:45:53.533Z,15.22
2023-05-30T05:46:53.606Z,15.29
2023-05-30T05:47:53.770Z,15.33
2023-05-30T05:48:53.822Z,15.44
2023-05-30T05:49:53.918Z,15.54
2023-05-30T05:50:54.018Z,15.59
2023-05-30T05:51:54.086Z,15.66
2023-05-30T05:52:54.182Z,15.72
2023-05-30T05:53:54.278Z,15.81
2023-05-30T05:54:54.364Z,15.90
2023-05-30T05:55:54.541Z,16.00
2023-05-30T05:56:54.567Z,16.09
2023-05-30T05:57:57.077Z,16.24
2023-05-30T05:58:54.809Z,16.37
2023-05-30T05:59:54.895Z,16.58
2023-05-30T06:00:54.992Z,16.86
2023-05-30T06:01:55.140Z,17.28
2023-05-30T06:02:55.371Z,17.71
2023-05-30T06:03:55.457Z,18.21
2023-05-30T06:04:55.441Z,18.71
2023-05-30T06:05:55.504Z,19.22
2023-05-30T06:06:55.583Z,19.66
2023-05-30T06:07:56.120Z,20.08
2023-05-30T06:08:55.764Z,20.70
2023-05-30T06:09:55.833Z,21.23
2023-05-30T06:10:56.242Z,21.77
2023-05-30T06:11:56.042Z,22.00
2023-05-30T06:12:56.138Z,21.70
2023-05-30T06:13:56.172Z,22.01
2023-05-30T06:14:56.345Z,21.83
2023-05-30T06:15:56.428Z,21.66
2023-05-30T06:16:56.530Z,22.26
2023-05-30T06:17:56.601Z,22.62
2023-05-30T06:18:56.634Z,23.07
2023-05-30T06:19:56.683Z,23.48
2023-05-30T06:20:57.254Z,23.66
2023-05-30T06:21:56.892Z,23.77
2023-05-30T06:22:56.918Z,23.91
2023-05-30T06:23:56.981Z,23.91
2023-05-30T06:25:04.030Z,23.95
2023-05-30T06:25:57.044Z,23.71
2023-05-30T06:26:57.067Z,23.28
2023-05-30T06:27:57.102Z,23.20
2023-05-30T06:28:57.131Z,23.18
2023-05-30T06:29:57.162Z,23.11
2023-05-30T06:30:57.352Z,23.51
2023-05-30T06:32:03.537Z,23.88
2023-05-30T06:32:58.293Z,24.53
2023-05-30T06:33:57.300Z,25.18
2023-05-30T06:34:57.325Z,25.52
2023-05-30T06:35:57.355Z,25.58
2023-05-30T06:36:57.348Z,25.56
2023-05-30T06:37:57.383Z,25.54
2023-05-30T06:38:57.402Z,25.31
2023-05-30T06:39:57.431Z,24.68
2023-05-30T06:40:57.631Z,24.29
2023-05-30T06:41:57.493Z,24.58
2023-05-30T06:42:57.568Z,24.96
2023-05-30T06:43:57.593Z,25.39
2023-05-30T06:44:57.629Z,25.31
2023-05-30T06:45:57.679Z,24.84
2023-05-30T06:46:57.689Z,24.31
2023-05-30T06:47:57.760Z,24.36
2023-05-30T06:48:57.755Z,24.36
2023-05-30T06:49:57.748Z,24.09
2023-05-30T06:50:58.242Z,24.40
2023-05-30T06:51:57.825Z,25.07
2023-05-30T06:52:57.874Z,25.33
2023-05-30T06:53:57.874Z,25.81
2023-05-30T06:54:57.867Z,25.93
2023-05-30T06:55:57.852Z,25.61
2023-05-30T06:56:57.833Z,25.48
2023-05-30T06:57:57.861Z,25.92
2023-05-30T06:58:57.824Z,26.10
2023-05-30T06:59:57.827Z,26.10
2023-05-30T07:00:58.040Z,26.10
2023-05-30T07:01:57.900Z,26.23
2023-05-30T07:02:57.904Z,26.06
2023-05-30T07:03:57.861Z,25.40
2023-05-30T07:04:57.889Z,25.52
2023-05-30T07:05:57.873Z,25.55
2023-05-30T07:06:57.874Z,25.39
2023-05-30T07:07:57.867Z,25.09
2023-05-30T07:08:57.855Z,25.15
2023-05-30T07:09:57.852Z,24.86
2023-05-30T07:10:58.189Z,24.58
2023-05-30T07:11:57.831Z,24.77
2023-05-30T07:12:57.834Z,25.19
2023-05-30T07:13:57.809Z,25.61
2023-05-30T07:14:57.762Z,25.92
2023-05-30T07:15:57.781Z,26.15
2023-05-30T07:16:57.874Z,26.26
2023-05-30T07:17:57.777Z,26.23
2023-05-30T07:19:11.641Z,25.96
2023-05-30T07:19:58.664Z,25.96
2023-05-30T07:20:57.908Z,26.37
2023-05-30T07:21:57.703Z,26.26
2023-05-30T07:22:57.694Z,25.15
2023-05-30T07:23:57.648Z,25.16
2023-05-30T07:24:57.618Z,25.33
2023-05-30T07:25:57.591Z,25.11
2023-05-30T07:26:57.776Z,25.48
2023-05-30T07:27:57.530Z,25.89
2023-05-30T07:28:57.494Z,25.96
2023-05-30T07:29:57.456Z,25.80
2023-05-30T07:30:57.567Z,25.67
2023-05-30T07:31:57.437Z,25.77
2023-05-30T07:32:57.488Z,26.22
2023-05-30T07:33:57.439Z,26.30
2023-05-30T07:34:57.399Z,26.11
2023-05-30T07:35:57.389Z,25.76
2023-05-30T07:36:57.365Z,25.86
2023-05-30T07:37:57.331Z,26.30
2023-05-30T07:38:57.282Z,26.63
2023-05-30T07:39:57.463Z,26.81
2023-05-30T07:40:57.430Z,26.78
2023-05-30T07:41:57.241Z,26.86
2023-05-30T07:42:57.199Z,27.16
2023-05-30T07:43:57.147Z,26.88
2023-05-30T07:44:57.117Z,26.64
2023-05-30T07:45:57.096Z,26.73
2023-05-30T07:46:57.126Z,25.93
2023-05-30T07:47:56.989Z,25.63
2023-05-30T07:48:56.960Z,25.43
2023-05-30T07:49:56.905Z,25.24
2023-05-30T07:50:56.944Z,25.26
2023-05-30T07:51:56.797Z,25.33
2023-05-30T07:52:56.798Z,25.06
2023-05-30T07:53:56.831Z,25.29
2023-05-30T07:54:56.794Z,25.74
2023-05-30T07:55:56.745Z,26.29
2023-05-30T07:56:56.684Z,26.55
2023-05-30T07:57:56.628Z,26.71
2023-05-30T07:58:56.573Z,26.73
2023-05-30T07:59:56.558Z,27.16
2023-05-30T08:00:56.731Z,27.40
2023-05-30T08:01:56.414Z,27.55
2023-05-30T08:02:56.400Z,27.30
2023-05-30T08:03:56.500Z,26.89
2023-05-30T08:04:56.333Z,27.05
2023-05-30T08:05:56.185Z,26.48
2023-05-30T08:06:56.165Z,25.09
2023-05-30T08:07:56.111Z,24.89
2023-05-30T08:08:56.126Z,24.94
2023-05-30T08:09:55.974Z,25.40
2023-05-30T08:10:56.196Z,25.85
2023-05-30T08:11:55.913Z,26.26
2023-05-30T08:12:55.846Z,26.48
2023-05-30T08:13:55.801Z,26.61
2023-05-30T08:14:55.711Z,26.76
2023-05-30T08:15:55.812Z,26.48
2023-05-30T08:16:55.645Z,26.39
2023-05-30T08:17:55.619Z,26.49
2023-05-30T08:18:55.561Z,26.55
2023-05-30T08:19:55.606Z,26.49
2023-05-30T08:20:55.955Z,26.67
2023-05-30T08:21:55.533Z,26.91
2023-05-30T08:22:55.393Z,26.64
2023-05-30T08:23:56.574Z,26.34
2023-05-30T08:24:55.235Z,26.18
2023-05-30T08:25:55.180Z,25.95
2023-05-30T08:26:55.119Z,26.36
2023-05-30T08:27:55.104Z,26.96
2023-05-30T08:28:54.985Z,27.48
2023-05-30T08:29:54.916Z,27.81
2023-05-30T08:30:54.985Z,27.41
2023-05-30T08:31:54.994Z,27.35
2023-05-30T08:32:54.860Z,27.00
2023-05-30T08:33:54.816Z,26.88
2023-05-30T08:34:54.762Z,26.60
2023-05-30T08:35:54.684Z,26.53
2023-05-30T08:36:54.637Z,26.85
2023-05-30T08:37:54.575Z,26.96
2023-05-30T08:39:06.584Z,27.29
2023-05-30T08:39:55.387Z,27.57
2023-05-30T08:40:54.306Z,27.29
2023-05-30T08:41:54.310Z,27.72
2023-05-30T08:42:54.226Z,27.95
2023-05-30T08:43:54.141Z,27.71
2023-05-30T08:44:54.093Z,27.63
2023-05-30T08:45:54.058Z,27.41
2023-05-30T08:46:53.967Z,27.01
2023-05-30T08:47:54.012Z,26.82
2023-05-30T08:48:53.795Z,26.33
2023-05-30T08:49:53.760Z,25.92
2023-05-30T08:50:53.696Z,25.77
2023-05-30T08:51:53.615Z,25.48
2023-05-30T08:52:53.550Z,25.51
2023-05-30T08:53:53.490Z,25.34
2023-05-30T08:54:53.428Z,25.49
2023-05-30T08:55:53.355Z,25.76
2023-05-30T08:56:53.309Z,26.33
2023-05-30T08:57:53.221Z,26.93
2023-05-30T08:58:53.140Z,26.88
2023-05-30T08:59:53.048Z,26.79
2023-05-30T09:00:53.017Z,26.74
2023-05-30T09:01:55.150Z,26.85
2023-05-30T09:02:52.949Z,27.22
2023-05-30T09:03:52.907Z,27.08
2023-05-30T09:04:52.688Z,26.93
2023-05-30T09:05:52.601Z,27.04
2023-05-30T09:06:52.502Z,26.88
2023-05-30T09:07:52.489Z,26.49
2023-05-30T09:08:52.388Z,26.06
2023-05-30T09:09:52.299Z,26.36
2023-05-30T09:10:52.244Z,26.64
2023-05-30T09:11:52.150Z,27.03
2023-05-30T09:12:52.062Z,27.28
2023-05-30T09:13:51.958Z,27.45
2023-05-30T09:14:52.104Z,27.61
2023-05-30T09:15:51.797Z,27.25
2023-05-30T09:16:51.731Z,27.29
2023-05-30T09:17:51.736Z,27.16
2023-05-30T09:18:51.509Z,27.08
2023-05-30T09:19:51.411Z,26.53
2023-05-30T09:20:51.382Z,25.81
2023-05-30T09:21:51.257Z,25.66
2023-05-30T09:22:51.176Z,25.55
2023-05-30T09:23:51.043Z,25.51
2023-05-30T09:24:50.951Z,25.41
2023-05-30T09:25:50.864Z,25.21
2023-05-30T09:26:50.768Z,25.24
2023-05-30T09:27:50.664Z,25.48
2023-05-30T09:28:50.580Z,25.83
2023-05-30T09:29:50.479Z,26.30
2023-05-30T09:30:50.399Z,26.71
2023-05-30T09:31:50.353Z,27.22
2023-05-30T09:32:50.328Z,27.61
2023-05-30T09:33:50.182Z,27.15
2023-05-30T09:34:50.082Z,26.89
2023-05-30T09:35:49.996Z,27.11
2023-05-30T09:36:51.005Z,27.43
2023-05-30T09:37:49.860Z,27.48
2023-05-30T09:38:49.722Z,27.40
2023-05-30T09:39:49.608Z,27.35
2023-05-30T09:40:49.540Z,27.60
2023-05-30T09:41:49.409Z,27.97
2023-05-30T09:42:49.329Z,28.10
2023-05-30T09:43:50.189Z,27.81
2023-05-30T09:44:49.172Z,27.75
2023-05-30T09:45:49.062Z,27.94
2023-05-30T09:46:48.997Z,27.86
2023-05-30T09:47:48.927Z,27.94
2023-05-30T09:48:48.787Z,27.98
2023-05-30T09:49:48.662Z,27.83
2023-05-30T09:50:48.562Z,27.81
2023-05-30T09:51:48.437Z,27.75
2023-05-30T09:52:48.341Z,28.01
2023-05-30T09:53:48.240Z,28.15
2023-05-30T09:54:48.175Z,28.28
2023-05-30T09:55:48.053Z,28.03
2023-05-30T09:56:47.935Z,27.95
2023-05-30T09:57:47.830Z,27.81
2023-05-30T09:58:47.841Z,27.81
2023-05-30T09:59:47.649Z,27.91
2023-05-30T10:00:47.542Z,27.78
2023-05-30T10:01:47.473Z,27.48
2023-05-30T10:02:47.388Z,27.43
2023-05-30T10:03:47.268Z,27.52
2023-05-30T10:04:47.173Z,27.88
2023-05-30T10:05:47.065Z,27.97
2023-05-30T10:06:47.125Z,27.50
2023-05-30T10:07:47.296Z,27.16
2023-05-30T10:08:46.840Z,27.33
2023-05-30T10:09:46.720Z,27.52
2023-05-30T10:10:46.603Z,27.73
2023-05-30T10:11:46.477Z,27.90
2023-05-30T10:12:46.369Z,27.88
2023-05-30T10:13:46.250Z,27.41
2023-05-30T10:14:46.168Z,27.44
2023-05-30T10:15:46.062Z,27.79
2023-05-30T10:16:45.951Z,28.22
2023-05-30T10:17:45.847Z,28.46
2023-05-30T10:18:45.702Z,28.60
2023-05-30T10:19:45.590Z,28.80
2023-05-30T10:20:45.690Z,28.97
2023-05-30T10:21:45.406Z,29.07
2023-05-30T10:22:45.290Z,28.56
2023-05-30T10:23:45.149Z,28.18
2023-05-30T10:24:45.046Z,27.82
2023-05-30T10:25:44.934Z,28.01
2023-05-30T10:26:44.794Z,28.18
2023-05-30T10:27:44.689Z,28.22
2023-05-30T10:28:44.582Z,28.43
2023-05-30T10:29:44.456Z,28.25
2023-05-30T10:30:44.376Z,27.44
2023-05-30T10:31:44.276Z,27.13
2023-05-30T10:32:44.163Z,26.59
2023-05-30T10:33:56.115Z,26.60
2023-05-30T10:34:44.918Z,26.78
2023-05-30T10:35:43.844Z,26.91
2023-05-30T10:36:43.711Z,27.52
2023-05-30T10:37:43.602Z,27.67
2023-05-30T10:38:43.494Z,27.81
2023-05-30T10:39:43.390Z,27.71
2023-05-30T10:40:43.303Z,27.79
2023-05-30T10:41:53.341Z,27.79
2023-05-30T10:42:44.055Z,27.90
2023-05-30T10:43:42.954Z,28.13
2023-05-30T10:44:42.853Z,27.93
2023-05-30T10:45:42.765Z,27.91
2023-05-30T10:46:42.633Z,28.25
2023-05-30T10:47:42.529Z,28.74
2023-05-30T10:48:42.366Z,29.07
2023-05-30T10:49:42.266Z,29.10
2023-05-30T10:50:42.156Z,28.59
2023-05-30T10:51:42.049Z,28.28
2023-05-30T10:52:41.935Z,28.13
2023-05-30T10:53:41.842Z,28.25
2023-05-30T10:54:41.732Z,27.97
2023-05-30T10:55:41.650Z,27.86
2023-05-30T10:56:41.553Z,27.48
2023-05-30T10:57:41.445Z,27.83
2023-05-30T10:58:41.342Z,28.27
2023-05-30T10:59:41.246Z,28.62
2023-05-30T11:00:41.169Z,28.92
2023-05-30T11:01:41.083Z,29.22
2023-05-30T11:02:41.080Z,29.53
2023-05-30T11:03:40.979Z,29.79
2023-05-30T11:04:44.523Z,29.67
2023-05-30T11:05:40.847Z,29.67
2023-05-30T11:06:40.758Z,29.64
2023-05-30T11:07:40.658Z,29.68
2023-05-30T11:08:40.548Z,29.64
2023-05-30T11:09:40.459Z,29.58
2023-05-30T11:10:40.366Z,29.64
2023-05-30T11:11:40.335Z,29.53
2023-05-30T11:12:40.136Z,29.43
2023-05-30T11:13:40.038Z,29.71
2023-05-30T11:14:39.935Z,30.01
2023-05-30T11:15:39.874Z,30.36
2023-05-30T11:16:39.823Z,30.77
2023-05-30T11:17:39.798Z,31.13
2023-05-30T11:18:39.659Z,31.22
2023-05-30T11:19:39.572Z,30.67
2023-05-30T11:20:39.492Z,30.39
2023-05-30T11:21:39.386Z,30.48
2023-05-30T11:22:39.289Z,30.61
2023-05-30T11:23:39.250Z,30.91
2023-05-30T11:24:39.143Z,31.07
2023-05-30T11:25:39.049Z,31.22
2023-05-30T11:26:38.934Z,31.39
2023-05-30T11:27:38.853Z,31.59
2023-05-30T11:28:39.053Z,31.41
2023-05-30T11:29:38.673Z,31.48
2023-05-30T11:30:38.582Z,30.26
2023-05-30T11:31:38.525Z,30.35
2023-05-30T11:32:38.471Z,30.54
2023-05-30T11:33:38.347Z,30.61
2023-05-30T11:34:38.314Z,30.88
2023-05-30T11:35:38.265Z,30.52
2023-05-30T11:36:38.136Z,30.18
2023-05-30T11:37:38.054Z,30.58
2023-05-30T11:38:37.972Z,30.99
2023-05-30T11:39:37.962Z,31.22
2023-05-30T11:40:37.858Z,31.52
2023-05-30T11:41:37.808Z,31.66
2023-05-30T11:42:37.727Z,31.69
2023-05-30T11:43:37.624Z,31.54
2023-05-30T11:44:37.563Z,30.88
2023-05-30T11:45:37.475Z,30.13
2023-05-30T11:46:37.437Z,30.17
2023-05-30T11:47:46.197Z,30.46
2023-05-30T11:48:38.309Z,30.83
2023-05-30T11:49:37.211Z,31.41
2023-05-30T11:50:37.153Z,31.44
2023-05-30T11:51:37.099Z,30.83
2023-05-30T11:52:37.032Z,30.81
2023-05-30T11:53:36.966Z,30.96
2023-05-30T11:54:36.927Z,30.65
2023-05-30T11:55:36.867Z,30.31
2023-05-30T11:56:36.814Z,30.36
2023-05-30T11:57:36.755Z,30.17
2023-05-30T11:58:36.689Z,30.05
2023-05-30T11:59:36.638Z,30.10
2023-05-30T12:00:36.567Z,30.20
2023-05-30T12:01:36.540Z,29.79
2023-05-30T12:02:36.615Z,29.62
2023-05-30T12:03:36.530Z,29.71
2023-05-30T12:04:36.471Z,30.01
2023-05-30T12:05:36.444Z,30.17
2023-05-30T12:06:36.358Z,29.67
2023-05-30T12:07:36.323Z,28.96
2023-05-30T12:08:36.255Z,29.00
2023-05-30T12:09:36.213Z,28.82
2023-05-30T12:10:36.221Z,29.16
2023-05-30T12:11:36.229Z,29.83
2023-05-30T12:12:36.190Z,29.87
2023-05-30T12:13:36.155Z,29.99
2023-05-30T12:14:36.091Z,29.96
2023-05-30T12:15:36.048Z,30.49
2023-05-30T12:16:36.014Z,30.73
2023-05-30T12:17:36.137Z,30.86
2023-05-30T12:18:36.099Z,30.83
2023-05-30T12:19:36.013Z,31.15
2023-05-30T12:20:36.015Z,31.47
2023-05-30T12:21:35.931Z,31.63
2023-05-30T12:22:35.934Z,31.51
2023-05-30T12:23:35.894Z,31.13
2023-05-30T12:24:42.847Z,30.88
2023-05-30T12:25:35.805Z,30.89
2023-05-30T12:26:35.744Z,31.07
2023-05-30T12:27:35.709Z,31.20
2023-05-30T12:28:35.649Z,31.15
2023-05-30T12:29:35.592Z,31.05
2023-05-30T12:30:35.572Z,31.28
2023-05-30T12:31:35.577Z,31.39
2023-05-30T12:32:35.497Z,31.89
2023-05-30T12:33:35.467Z,32.54
2023-05-30T12:34:35.424Z,32.48
2023-05-30T12:35:35.372Z,32.09
2023-05-30T12:36:35.319Z,32.05
2023-05-30T12:37:35.293Z,32.41
2023-05-30T12:38:35.275Z,32.66
2023-05-30T12:39:35.225Z,33.08
2023-05-30T12:40:35.175Z,33.31
2023-05-30T12:41:35.120Z,33.28
2023-05-30T12:42:35.089Z,33.45
2023-05-30T12:43:35.026Z,33.33
2023-05-30T12:44:34.964Z,33.22
2023-05-30T12:45:34.926Z,33.05
2023-05-30T12:46:35.092Z,33.09
2023-05-30T12:47:34.832Z,33.28
2023-05-30T12:48:36.988Z,33.15
2023-05-30T12:49:34.792Z,32.85
2023-05-30T12:50:34.732Z,32.05
2023-05-30T12:51:34.697Z,31.55
2023-05-30T12:52:34.651Z,30.99
2023-05-30T12:53:34.612Z,30.18